Time;durP1;ratioP1;P1;durP2;ratioP2;P2;SDS_P1;SDS_P2;PMS_P1;PMS_P2;Temp;Humidity;BMP_temperature;BMP_pressure;BME280_temperature;BME280_humidity;BME280_pressure;Samples;Min_cycle;Max_cycle;Signal;HPM_P1;HPM_P2
2022/09/29 00:00:53;;;;;;;2.78;1.88;;;;;;;;;;5031967;28;20041;-67
2022/09/29 00:03:19;;;;;;;2.03;1.83;;;;;;;;;;5032706;28;20045;-67
2022/09/29 00:05:50;;;;;;;2.63;1.90;;;;;;;;;;5030670;28;20557;-66
2022/09/29 00:08:17;;;;;;;2.20;2.00;;;;;;;;;;5031797;28;20037;-66
2022/09/29 00:10:43;;;;;;;2.80;2.38;;;;;;;;;;5031524;28;20125;-67
2022/09/29 00:13:09;;;;;;;2.00;1.90;;;;;;;;;;5032124;28;20029;-66
2022/09/29 00:15:35;;;;;;;2.80;2.50;;;;;;;;;;5031051;28;20103;-67
2022/09/29 00:18:01;;;;;;;2.67;2.47;;;;;;;;;;5030964;28;20100;-66
2022/09/29 00:20:27;;;;;;;2.15;1.80;;;;;;;;;;5030477;28;20045;-66
2022/09/29 00:22:53;;;;;;;2.65;1.60;;;;;;;;;;5031222;28;20052;-67
2022/09/29 00:25:19;;;;;;;4.60;2.20;;;;;;;;;;5031074;28;20104;-67
2022/09/29 00:27:45;;;;;;;2.65;1.58;;;;;;;;;;5028644;28;20033;-66
2022/09/29 00:30:12;;;;;;;3.55;2.03;;;;;;;;;;5031259;28;20041;-67
2022/09/29 00:32:38;;;;;;;2.10;1.90;;;;;;;;;;5032394;28;20033;-67
2022/09/29 00:35:04;;;;;;;1.70;1.60;;;;;;;;;;5029970;28;20048;-66
2022/09/29 00:37:30;;;;;;;1.50;1.40;;;;;;;;;;5029964;28;20407;-67
2022/09/29 00:39:56;;;;;;;3.45;1.35;;;;;;;;;;5030901;28;20041;-67
2022/09/29 00:42:22;;;;;;;5.03;1.80;;;;;;;;;;5031099;28;20038;-66
2022/09/29 00:44:54;;;;;;;7.63;1.77;;;;;;;;;;5030388;28;20376;-66
2022/09/29 00:47:21;;;;;;;2.88;1.50;;;;;;;;;;5028499;28;20057;-67
2022/09/29 00:49:53;;;;;;;7.15;2.10;;;;;;;;;;5031600;28;20037;-66
2022/09/29 00:52:25;;;;;;;12.00;1.98;;;;;;;;;;5031086;28;20038;-67
2022/09/29 00:54:57;;;;;;;4.03;1.88;;;;;;;;;;5030856;28;20053;-66
2022/09/29 00:57:25;;;;;;;15.43;2.40;;;;;;;;;;5029866;28;20407;-67
2022/09/29 00:59:58;;;;;;;13.57;2.20;;;;;;;;;;5031530;28;20051;-67
2022/09/29 01:02:24;;;;;;;4.07;2.08;;;;;;;;;;5031742;28;20049;-67
2022/09/29 01:04:51;;;;;;;5.82;2.70;;;;;;;;;;5031260;28;20561;-66
2022/09/29 01:07:18;;;;;;;20.70;2.30;;;;;;;;;;5023298;28;20037;-67
2022/09/29 01:09:45;;;;;;;18.15;2.35;;;;;;;;;;5030125;28;20064;-66
2022/09/29 01:12:11;;;;;;;21.70;2.63;;;;;;;;;;5029025;28;20045;-66
2022/09/29 01:14:37;;;;;;;15.68;2.22;;;;;;;;;;5031279;28;20044;-66
2022/09/29 01:17:04;;;;;;;13.70;2.20;;;;;;;;;;5022688;28;20458;-67
2022/09/29 01:19:40;;;;;;;5.13;1.85;;;;;;;;;;5028901;28;20041;-66
2022/09/29 01:22:13;;;;;;;13.40;2.40;;;;;;;;;;5029753;28;20044;-66
2022/09/29 01:24:57;;;;;;;1.77;1.67;;;;;;;;;;5024478;28;20079;-66
2022/09/29 01:27:42;;;;;;;5.90;2.45;;;;;;;;;;5030785;28;20080;-66
2022/09/29 01:30:16;;;;;;;14.05;3.03;;;;;;;;;;5030396;28;20376;-66
2022/09/29 01:32:51;;;;;;;12.10;3.03;;;;;;;;;;5034634;28;20099;-67
2022/09/29 01:35:20;;;;;;;20.83;3.60;;;;;;;;;;5035434;28;20076;-66
2022/09/29 01:37:52;;;;;;;21.48;4.05;;;;;;;;;;5032894;28;20038;-67
2022/09/29 01:40:26;;;;;;;59.75;5.38;;;;;;;;;;5034243;28;20044;-66
2022/09/29 01:42:58;;;;;;;20.92;3.42;;;;;;;;;;5035273;28;20558;-67
2022/09/29 01:45:30;;;;;;;36.28;3.35;;;;;;;;;;5034325;28;20045;-67
2022/09/29 01:47:58;;;;;;;17.63;2.70;;;;;;;;;;5034911;28;20399;-67
2022/09/29 01:50:27;;;;;;;10.55;2.90;;;;;;;;;;5032572;28;20113;-67
2022/09/29 01:52:56;;;;;;;5.32;2.40;;;;;;;;;;5034812;28;20080;-67
2022/09/29 01:55:24;;;;;;;14.52;2.60;;;;;;;;;;5035072;28;20041;-66
2022/09/29 01:57:53;;;;;;;11.48;2.30;;;;;;;;;;5035099;28;20038;-67
2022/09/29 02:00:22;;;;;;;12.73;2.50;;;;;;;;;;5033095;28;20034;-66
2022/09/29 02:02:54;;;;;;;8.40;2.60;;;;;;;;;;5038863;28;20041;-67
2022/09/29 02:05:29;;;;;;;7.72;2.20;;;;;;;;;;5030536;28;20080;-67
2022/09/29 02:07:58;;;;;;;42.08;3.50;;;;;;;;;;5033905;28;20045;-66
2022/09/29 02:10:26;;;;;;;61.70;4.95;;;;;;;;;;5033757;28;20116;-66
2022/09/29 02:12:55;;;;;;;51.15;4.35;;;;;;;;;;5032840;28;20112;-66
2022/09/29 02:15:27;;;;;;;40.22;4.00;;;;;;;;;;5033627;28;20049;-67
2022/09/29 02:17:55;;;;;;;34.08;3.45;;;;;;;;;;5058848;22;20049;-63
2022/09/29 02:20:21;;;;;;;19.98;2.88;;;;;;;;;;5072965;28;20071;-64
2022/09/29 02:22:47;;;;;;;31.70;3.70;;;;;;;;;;5071370;28;20051;-63
2022/09/29 02:25:16;;;;;;;25.10;3.00;;;;;;;;;;5073060;28;20036;-63
2022/09/29 02:27:42;;;;;;;37.13;4.18;;;;;;;;;;5069062;28;20410;-63
2022/09/29 02:30:09;;;;;;;34.97;3.72;;;;;;;;;;5053881;28;20616;-63
2022/09/29 02:32:35;;;;;;;40.28;3.95;;;;;;;;;;5053744;28;20041;-63
2022/09/29 02:35:02;;;;;;;12.02;2.95;;;;;;;;;;5048457;28;20479;-63
2022/09/29 02:37:37;;;;;;;12.52;2.83;;;;;;;;;;5046288;28;20047;-63
2022/09/29 02:40:03;;;;;;;18.95;2.53;;;;;;;;;;5069536;28;20049;-63
2022/09/29 02:42:45;;;;;;;12.35;2.45;;;;;;;;;;5062293;28;20616;-63
2022/09/29 02:45:14;;;;;;;22.20;2.70;;;;;;;;;;5045940;28;20125;-63
2022/09/29 02:47:58;;;;;;;22.30;3.05;;;;;;;;;;5057538;28;20044;-64
2022/09/29 02:50:27;;;;;;;16.35;3.00;;;;;;;;;;5064198;28;20037;-64
2022/09/29 02:52:56;;;;;;;12.23;2.90;;;;;;;;;;5050254;28;20083;-64
2022/09/29 02:55:35;;;;;;;7.13;2.90;;;;;;;;;;5057249;28;20036;-64
2022/09/29 02:58:01;;;;;;;5.35;2.40;;;;;;;;;;5066362;28;20040;-63
2022/09/29 03:00:27;;;;;;;13.88;3.08;;;;;;;;;;5053996;28;20040;-64
2022/09/29 03:02:53;;;;;;;27.80;3.78;;;;;;;;;;5064457;28;20124;-64
2022/09/29 03:05:21;;;;;;;29.50;3.50;;;;;;;;;;5055263;28;20108;-63
2022/09/29 03:07:47;;;;;;;21.80;3.65;;;;;;;;;;5049839;28;20086;-64
2022/09/29 03:10:14;;;;;;;40.78;4.68;;;;;;;;;;5054822;28;20033;-64
2022/09/29 03:12:40;;;;;;;50.90;5.15;;;;;;;;;;5070529;28;20045;-63
2022/09/29 03:15:07;;;;;;;38.97;4.40;;;;;;;;;;5048296;28;20521;-63
2022/09/29 03:17:33;;;;;;;17.25;3.90;;;;;;;;;;5052952;28;20554;-63
2022/09/29 03:19:59;;;;;;;44.58;4.40;;;;;;;;;;5052915;28;20029;-63
2022/09/29 03:22:25;;;;;;;26.73;4.03;;;;;;;;;;5049203;28;20494;-63
2022/09/29 03:24:51;;;;;;;46.88;5.03;;;;;;;;;;5053040;28;20044;-63
2022/09/29 03:27:17;;;;;;;63.22;5.85;;;;;;;;;;5053221;28;20053;-63
2022/09/29 03:29:43;;;;;;;60.83;5.43;;;;;;;;;;5051659;28;20041;-64
2022/09/29 03:32:09;;;;;;;70.32;6.30;;;;;;;;;;5041416;28;20123;-63
2022/09/29 03:34:36;;;;;;;40.70;5.35;;;;;;;;;;5032610;28;20034;-63
2022/09/29 03:37:02;;;;;;;43.38;4.75;;;;;;;;;;5048692;28;20041;-64
2022/09/29 03:39:28;;;;;;;35.72;5.00;;;;;;;;;;5072395;28;20040;-63
2022/09/29 03:41:54;;;;;;;40.30;4.50;;;;;;;;;;5065643;28;20040;-63
2022/09/29 03:44:20;;;;;;;23.92;4.15;;;;;;;;;;5072350;28;20044;-63
2022/09/29 03:46:46;;;;;;;33.38;4.35;;;;;;;;;;5072535;28;20092;-64
2022/09/29 03:49:14;;;;;;;22.83;4.22;;;;;;;;;;5050969;28;20037;-63
2022/09/29 03:51:40;;;;;;;27.63;4.78;;;;;;;;;;5032486;28;20079;-63
2022/09/29 03:54:06;;;;;;;28.85;4.38;;;;;;;;;;5050915;28;20072;-64
2022/09/29 03:56:32;;;;;;;30.40;5.18;;;;;;;;;;5051084;28;20076;-64
2022/09/29 03:58:58;;;;;;;41.22;5.18;;;;;;;;;;5050184;28;20032;-63
2022/09/29 04:01:24;;;;;;;68.45;6.25;;;;;;;;;;5048640;28;20048;-64
2022/09/29 04:03:50;;;;;;;63.67;5.45;;;;;;;;;;5058902;28;20590;-64
2022/09/29 04:06:16;;;;;;;74.15;6.57;;;;;;;;;;5060939;28;20044;-64
2022/09/29 04:08:42;;;;;;;68.85;7.18;;;;;;;;;;5054753;28;20033;-64
2022/09/29 04:11:09;;;;;;;46.55;6.18;;;;;;;;;;5060359;28;20043;-63
2022/09/29 04:13:35;;;;;;;86.97;7.45;;;;;;;;;;5061602;28;20502;-64
2022/09/29 04:16:02;;;;;;;45.03;5.63;;;;;;;;;;5051686;28;20090;-64
2022/09/29 04:18:28;;;;;;;68.28;6.35;;;;;;;;;;5049619;28;20052;-64
2022/09/29 04:20:59;;;;;;;71.88;7.93;;;;;;;;;;5055173;28;20041;-64
2022/09/29 04:23:25;;;;;;;;;;;;;;;;;;5057697;28;20487;-63
2022/09/29 04:25:51;;;;;;;36.13;6.53;;;;;;;;;;5051265;28;19928;-63
2022/09/29 04:28:17;;;;;;;35.67;5.43;;;;;;;;;;5042752;28;20034;-63
2022/09/29 04:30:43;;;;;;;28.33;5.28;;;;;;;;;;5057033;28;20383;-64
2022/09/29 04:33:09;;;;;;;24.27;5.65;;;;;;;;;;5063793;28;20086;-63
2022/09/29 04:35:35;;;;;;;28.27;5.00;;;;;;;;;;5071845;28;20048;-63
2022/09/29 04:38:01;;;;;;;30.67;5.28;;;;;;;;;;5066456;28;20462;-63
2022/09/29 04:40:27;;;;;;;33.95;5.22;;;;;;;;;;5061446;28;20052;-64
2022/09/29 04:42:53;;;;;;;29.00;5.50;;;;;;;;;;5071793;28;20037;-64
2022/09/29 04:45:19;;;;;;;14.25;4.47;;;;;;;;;;5071458;28;20048;-63
2022/09/29 04:47:45;;;;;;;30.30;5.47;;;;;;;;;;5069109;28;20115;-63
2022/09/29 04:50:11;;;;;;;13.02;4.40;;;;;;;;;;5057555;28;20037;-63
2022/09/29 04:52:37;;;;;;;13.63;4.20;;;;;;;;;;5057885;28;20372;-63
2022/09/29 04:55:03;;;;;;;14.57;3.95;;;;;;;;;;5051060;28;20033;-63
2022/09/29 04:57:29;;;;;;;13.93;4.55;;;;;;;;;;5048396;28;20048;-63
2022/09/29 04:59:55;;;;;;;9.77;4.35;;;;;;;;;;5054095;28;20049;-64
2022/09/29 05:02:22;;;;;;;20.05;5.18;;;;;;;;;;5070268;28;20415;-63
2022/09/29 05:04:48;;;;;;;7.60;4.07;;;;;;;;;;5071293;28;20090;-63
2022/09/29 05:07:14;;;;;;;6.65;3.90;;;;;;;;;;5071307;28;20040;-63
2022/09/29 05:09:40;;;;;;;16.20;4.70;;;;;;;;;;5062459;28;20063;-64
2022/09/29 05:12:06;;;;;;;56.88;6.20;;;;;;;;;;5071455;28;20037;-63
2022/09/29 05:14:32;;;;;;;30.40;5.90;;;;;;;;;;5056593;28;20037;-63
2022/09/29 05:16:58;;;;;;;28.77;5.15;;;;;;;;;;5064278;28;20564;-63
2022/09/29 05:19:24;;;;;;;28.83;4.80;;;;;;;;;;5057643;28;20056;-63
2022/09/29 05:21:50;;;;;;;27.83;5.25;;;;;;;;;;5054799;28;20536;-63
2022/09/29 05:24:16;;;;;;;15.00;5.65;;;;;;;;;;5051356;28;20064;-63
2022/09/29 05:26:42;;;;;;;29.58;5.55;;;;;;;;;;5051292;28;20494;-64
2022/09/29 05:29:08;;;;;;;23.27;4.97;;;;;;;;;;5054101;28;20036;-63
2022/09/29 05:31:34;;;;;;;16.65;5.13;;;;;;;;;;5063185;28;20041;-63
2022/09/29 05:34:00;;;;;;;24.05;5.82;;;;;;;;;;5051254;28;20212;-64
2022/09/29 05:36:26;;;;;;;14.43;5.30;;;;;;;;;;5067625;28;20502;-63
2022/09/29 05:38:52;;;;;;;20.55;5.78;;;;;;;;;;5051706;28;20037;-64
2022/09/29 05:41:22;;;;;;;18.83;5.75;;;;;;;;;;5059650;28;20040;-64
2022/09/29 05:43:49;;;;;;;26.13;6.05;;;;;;;;;;5041552;28;20045;-64
2022/09/29 05:46:18;;;;;;;22.13;6.20;;;;;;;;;;5045098;28;20079;-64
2022/09/29 05:48:45;;;;;;;15.45;6.10;;;;;;;;;;5064521;28;20068;-64
2022/09/29 05:51:12;;;;;;;9.52;5.35;;;;;;;;;;5070790;28;20508;-64
2022/09/29 05:53:39;;;;;;;54.70;7.65;;;;;;;;;;5035219;28;20046;-64
2022/09/29 05:56:06;;;;;;;18.60;6.50;;;;;;;;;;5037298;28;20040;-64
2022/09/29 05:58:32;;;;;;;27.75;6.22;;;;;;;;;;5054698;28;20510;-64
2022/09/29 06:00:58;;;;;;;24.73;8.10;;;;;;;;;;5066186;28;20070;-64
2022/09/29 06:03:24;;;;;;;23.08;6.93;;;;;;;;;;5070847;28;20036;-64
2022/09/29 06:05:50;;;;;;;19.38;5.93;;;;;;;;;;5053647;28;20041;-64
2022/09/29 06:08:16;;;;;;;13.27;6.55;;;;;;;;;;5068885;28;20051;-64
2022/09/29 06:10:42;;;;;;;15.77;6.57;;;;;;;;;;5055533;28;20036;-64
2022/09/29 06:13:08;;;;;;;12.93;6.80;;;;;;;;;;5051690;28;20033;-63
2022/09/29 06:15:34;;;;;;;11.10;6.60;;;;;;;;;;5049354;28;20086;-64
2022/09/29 06:18:00;;;;;;;12.45;6.07;;;;;;;;;;5055045;28;20044;-64
2022/09/29 06:20:27;;;;;;;8.32;6.30;;;;;;;;;;5042628;28;20040;-64
2022/09/29 06:22:54;;;;;;;10.07;6.55;;;;;;;;;;5052529;28;20045;-64
2022/09/29 06:25:20;;;;;;;17.20;7.20;;;;;;;;;;5042047;28;20041;-64
2022/09/29 06:27:46;;;;;;;11.32;7.28;;;;;;;;;;5052683;28;20126;-62
2022/09/29 06:30:12;;;;;;;30.70;7.38;;;;;;;;;;5045729;28;20124;-63
2022/09/29 06:32:39;;;;;;;22.73;7.40;;;;;;;;;;5046887;28;20047;-63
2022/09/29 06:37:50;;;;;;;57.90;9.38;;;;;;;;;;5060479;28;20044;-63
2022/09/29 06:40:19;;;;;;;52.67;9.50;;;;;;;;;;5039273;28;20132;-63
2022/09/29 06:42:45;;;;;;;23.75;8.48;;;;;;;;;;5047143;28;20095;-63
2022/09/29 06:45:11;;;;;;;20.45;7.68;;;;;;;;;;5061498;28;20490;-62
2022/09/29 06:47:37;;;;;;;55.42;9.63;;;;;;;;;;5047356;28;20072;-63
2022/09/29 06:50:03;;;;;;;54.45;9.27;;;;;;;;;;5055438;28;20071;-63
2022/09/29 06:52:29;;;;;;;31.88;8.65;;;;;;;;;;5053545;28;20040;-63
2022/09/29 06:54:55;;;;;;;62.63;10.00;;;;;;;;;;5049180;28;20124;-63
2022/09/29 06:57:21;;;;;;;64.80;9.95;;;;;;;;;;5050189;28;20422;-63
2022/09/29 06:59:47;;;;;;;29.52;9.10;;;;;;;;;;5048348;28;20033;-63
2022/09/29 07:02:14;;;;;;;52.90;9.70;;;;;;;;;;5052803;28;20037;-63
2022/09/29 07:04:40;;;;;;;45.00;9.38;;;;;;;;;;5053282;28;20119;-63
2022/09/29 07:07:06;;;;;;;38.10;9.43;;;;;;;;;;5062753;28;20861;-63
2022/09/29 07:09:32;;;;;;;46.42;10.13;;;;;;;;;;5053552;28;20073;-63
2022/09/29 07:11:58;;;;;;;35.38;9.55;;;;;;;;;;5038146;28;20121;-63
2022/09/29 07:14:27;;;;;;;16.85;8.45;;;;;;;;;;5044370;28;20483;-63
2022/09/29 07:16:53;;;;;;;38.88;9.55;;;;;;;;;;5060120;28;20044;-63
2022/09/29 07:19:20;;;;;;;20.05;9.60;;;;;;;;;;5048818;28;20032;-63
2022/09/29 07:21:47;;;;;;;17.00;9.50;;;;;;;;;;5055538;28;20044;-63
2022/09/29 07:24:13;;;;;;;14.27;9.45;;;;;;;;;;5047829;28;20034;-63
2022/09/29 07:26:39;;;;;;;17.73;10.02;;;;;;;;;;5050501;28;20045;-63
2022/09/29 07:29:05;;;;;;;12.05;9.93;;;;;;;;;;5049993;28;20064;-63
2022/09/29 07:31:31;;;;;;;23.17;11.45;;;;;;;;;;5051489;28;20145;-63
2022/09/29 07:33:57;;;;;;;14.82;10.45;;;;;;;;;;5052073;28;20068;-62
2022/09/29 07:36:24;;;;;;;14.85;10.90;;;;;;;;;;5050417;28;20073;-63
2022/09/29 07:38:50;;;;;;;15.23;12.25;;;;;;;;;;5072847;28;20048;-63
2022/09/29 07:41:19;;;;;;;17.95;11.43;;;;;;;;;;5057309;28;20491;-63
2022/09/29 07:43:46;;;;;;;13.13;11.40;;;;;;;;;;5052741;28;20380;-63
2022/09/29 07:46:12;;;;;;;16.80;12.32;;;;;;;;;;5043984;28;20069;-63
2022/09/29 07:48:38;;;;;;;15.68;12.38;;;;;;;;;;5052324;28;20059;-63
2022/09/29 07:51:07;;;;;;;19.35;12.77;;;;;;;;;;5052150;28;20115;-63
2022/09/29 07:53:35;;;;;;;15.48;12.02;;;;;;;;;;5055183;28;20067;-63
2022/09/29 07:56:04;;;;;;;16.75;12.63;;;;;;;;;;5048505;28;20414;-63
2022/09/29 07:58:31;;;;;;;15.98;13.10;;;;;;;;;;5043473;28;20267;-63
2022/09/29 08:00:57;;;;;;;16.83;13.55;;;;;;;;;;5045782;28;20043;-63
2022/09/29 08:03:25;;;;;;;18.95;11.93;;;;;;;;;;5062410;28;20115;-63
2022/09/29 08:05:52;;;;;;;17.65;13.05;;;;;;;;;;5072518;28;20044;-63
2022/09/29 08:08:18;;;;;;;18.77;12.35;;;;;;;;;;5069053;28;20059;-63
2022/09/29 08:10:44;;;;;;;17.75;12.55;;;;;;;;;;5051918;28;20098;-63
2022/09/29 08:13:10;;;;;;;16.67;13.07;;;;;;;;;;5058769;28;20044;-63
2022/09/29 08:15:35;;;;;;;17.42;13.45;;;;;;;;;;5060093;28;20040;-63
2022/09/29 08:18:01;;;;;;;17.13;13.80;;;;;;;;;;5063193;22;20036;-67
2022/09/29 08:20:27;;;;;;;19.42;14.52;;;;;;;;;;5050657;28;20037;-66
2022/09/29 08:22:55;;;;;;;17.90;12.63;;;;;;;;;;5050636;28;20033;-67
2022/09/29 08:25:24;;;;;;;16.45;12.65;;;;;;;;;;5051637;28;20041;-67
2022/09/29 08:27:50;;;;;;;16.48;12.90;;;;;;;;;;5046535;28;20038;-67
2022/09/29 08:30:17;;;;;;;18.77;13.20;;;;;;;;;;5004399;28;20048;-66
2022/09/29 08:32:44;;;;;;;20.08;13.13;;;;;;;;;;5031357;28;20120;-67
2022/09/29 08:35:09;;;;;;;17.13;13.30;;;;;;;;;;5017678;28;20050;-66
2022/09/29 08:37:37;;;;;;;15.85;12.30;;;;;;;;;;5031666;28;20124;-67
2022/09/29 08:40:03;;;;;;;17.10;12.80;;;;;;;;;;5031309;28;20041;-67
2022/09/29 08:42:29;;;;;;;16.50;12.93;;;;;;;;;;5029200;28;20049;-67
2022/09/29 08:45:01;;;;;;;17.02;12.75;;;;;;;;;;5031975;28;20046;-67
2022/09/29 08:47:28;;;;;;;16.10;12.35;;;;;;;;;;5031724;28;20053;-67
2022/09/29 08:50:03;;;;;;;17.13;12.00;;;;;;;;;;5031778;28;20050;-67
2022/09/29 08:52:30;;;;;;;15.80;12.48;;;;;;;;;;5021999;28;20467;-66
2022/09/29 08:55:01;;;;;;;17.98;13.25;;;;;;;;;;5031555;28;20041;-67
2022/09/29 08:57:29;;;;;;;20.70;13.23;;;;;;;;;;5022307;28;20415;-67
2022/09/29 08:59:57;;;;;;;17.65;12.73;;;;;;;;;;5031064;28;20049;-67
2022/09/29 09:02:38;;;;;;;17.05;12.25;;;;;;;;;;5022344;28;20049;-67
2022/09/29 09:05:04;;;;;;;;;;;;;;;;;;5032010;28;20125;-67
2022/09/29 09:07:45;;;;;;;15.63;12.10;;;;;;;;;;5030623;28;20008;-67
2022/09/29 09:10:19;;;;;;;16.52;12.63;;;;;;;;;;5027922;28;20033;-67
2022/09/29 09:12:45;;;;;;;17.92;12.70;;;;;;;;;;5021237;28;20037;-67
2022/09/29 09:15:30;;;;;;;16.77;11.80;;;;;;;;;;5025610;28;20039;-67
2022/09/29 09:18:05;;;;;;;17.05;11.98;;;;;;;;;;5023034;28;20091;-67
2022/09/29 09:20:35;;;;;;;15.48;12.18;;;;;;;;;;5031411;28;20037;-67
2022/09/29 09:23:10;;;;;;;18.45;11.85;;;;;;;;;;5030993;28;20029;-67
2022/09/29 09:25:52;;;;;;;16.08;11.82;;;;;;;;;;5028320;28;20049;-67
2022/09/29 09:28:45;;;;;;;17.13;13.10;;;;;;;;;;5029143;28;20038;-67
2022/09/29 09:31:21;;;;;;;18.65;13.00;;;;;;;;;;5026652;28;20580;-67
2022/09/29 09:33:54;;;;;;;16.40;12.50;;;;;;;;;;5030096;28;20069;-68
2022/09/29 09:36:29;;;;;;;16.17;12.18;;;;;;;;;;5027926;28;20042;-67
2022/09/29 09:38:59;;;;;;;15.43;11.88;;;;;;;;;;5028269;28;20067;-67
2022/09/29 09:41:27;;;;;;;15.93;11.50;;;;;;;;;;5023394;28;20554;-68
2022/09/29 09:43:57;;;;;;;16.45;12.05;;;;;;;;;;5030688;28;20092;-68
2022/09/29 09:46:39;;;;;;;15.00;11.30;;;;;;;;;;5027757;28;20442;-68
2022/09/29 09:49:29;;;;;;;15.23;12.48;;;;;;;;;;5028097;28;20121;-67
2022/09/29 09:51:58;;;;;;;14.88;12.65;;;;;;;;;;5012126;28;20065;-68
2022/09/29 09:54:24;;;;;;;14.85;11.77;;;;;;;;;;5031300;28;20107;-67
2022/09/29 09:57:00;;;;;;;16.25;11.88;;;;;;;;;;5033324;28;20042;-68
2022/09/29 09:59:26;;;;;;;16.30;12.00;;;;;;;;;;5025873;28;20060;-67
2022/09/29 10:01:52;;;;;;;14.07;10.90;;;;;;;;;;5033130;28;20176;-68
2022/09/29 10:04:22;;;;;;;13.75;11.32;;;;;;;;;;5029012;28;20037;-68
2022/09/29 10:06:50;;;;;;;14.93;11.07;;;;;;;;;;5029544;28;20053;-68
2022/09/29 10:09:16;;;;;;;14.95;11.48;;;;;;;;;;5040808;28;20029;-68
2022/09/29 10:11:43;;;;;;;16.05;10.90;;;;;;;;;;5034645;28;20037;-68
2022/09/29 10:14:21;;;;;;;13.93;10.35;;;;;;;;;;5032920;28;20041;-68
2022/09/29 10:16:53;;;;;;;12.43;9.73;;;;;;;;;;5036110;28;20403;-68
2022/09/29 10:19:21;;;;;;;13.00;10.10;;;;;;;;;;5041391;28;20057;-68
2022/09/29 10:21:47;;;;;;;12.02;9.52;;;;;;;;;;5034310;28;20045;-68
2022/09/29 10:24:20;;;;;;;11.85;9.75;;;;;;;;;;5033093;28;20451;-68
2022/09/29 10:26:48;;;;;;;11.90;9.85;;;;;;;;;;5033193;28;20046;-68
2022/09/29 10:29:51;;;;;;;13.60;9.88;;;;;;;;;;5040724;28;20096;-68
2022/09/29 10:32:35;;;;;;;12.50;9.40;;;;;;;;;;4970013;28;20030;-68
2022/09/29 10:35:08;;;;;;;10.73;9.40;;;;;;;;;;5021513;28;20628;-68
2022/09/29 10:37:37;;;;;;;10.77;8.65;;;;;;;;;;5031388;28;20072;-68
2022/09/29 10:40:12;;;;;;;10.50;8.23;;;;;;;;;;5032069;28;20491;-68
2022/09/29 10:42:39;;;;;;;11.10;8.10;;;;;;;;;;5026845;28;20120;-66
2022/09/29 10:45:11;;;;;;;10.85;7.53;;;;;;;;;;5041017;28;20033;-66
2022/09/29 10:47:37;;;;;;;12.57;8.05;;;;;;;;;;5030491;28;20510;-68
2022/09/29 10:50:13;;;;;;;12.27;9.00;;;;;;;;;;5018617;28;20041;-67
2022/09/29 10:52:41;;;;;;;12.07;9.07;;;;;;;;;;5026023;28;20042;-67
2022/09/29 10:55:15;;;;;;;12.60;8.52;;;;;;;;;;5033055;28;20567;-67
2022/09/29 10:57:42;;;;;;;10.23;8.38;;;;;;;;;;5031993;28;20049;-67
2022/09/29 11:00:24;;;;;;;9.93;8.13;;;;;;;;;;5034498;28;20065;-67
2022/09/29 11:02:52;;;;;;;11.35;8.70;;;;;;;;;;5026339;28;20388;-67
2022/09/29 11:05:22;;;;;;;12.82;8.75;;;;;;;;;;5028340;28;20038;-67
2022/09/29 11:07:49;;;;;;;12.13;8.48;;;;;;;;;;5026748;28;20053;-67
2022/09/29 11:10:30;;;;;;;11.02;9.18;;;;;;;;;;5042315;28;20079;-67
2022/09/29 11:12:59;;;;;;;12.88;9.60;;;;;;;;;;5040022;28;20033;-68
2022/09/29 11:15:38;;;;;;;12.55;9.18;;;;;;;;;;5027299;28;20045;-68
2022/09/29 11:18:16;;;;;;;13.23;8.88;;;;;;;;;;5023366;28;20041;-68
2022/09/29 11:20:44;;;;;;;11.48;9.10;;;;;;;;;;5030277;28;20045;-68
2022/09/29 11:23:19;;;;;;;12.07;9.02;;;;;;;;;;5021406;28;20358;-68
2022/09/29 11:25:45;;;;;;;12.15;8.75;;;;;;;;;;5031985;28;20034;-68
2022/09/29 11:28:23;;;;;;;14.45;10.52;;;;;;;;;;5030943;28;20514;-68
2022/09/29 11:30:52;;;;;;;15.20;10.32;;;;;;;;;;5026933;28;20037;-68
2022/09/29 11:33:33;;;;;;;11.02;8.73;;;;;;;;;;5026157;28;20447;-68
2022/09/29 11:36:18;;;;;;;11.50;9.05;;;;;;;;;;5031529;28;20100;-68
2022/09/29 11:38:50;;;;;;;10.70;8.77;;;;;;;;;;5029289;28;20127;-68
2022/09/29 11:41:26;;;;;;;11.88;8.52;;;;;;;;;;5028088;28;20510;-68
2022/09/29 11:43:54;;;;;;;11.27;7.50;;;;;;;;;;5028679;28;20068;-68
2022/09/29 11:46:38;;;;;;;12.55;8.35;;;;;;;;;;5026848;28;20045;-68
2022/09/29 11:49:07;;;;;;;9.90;7.80;;;;;;;;;;5030724;28;20044;-68
2022/09/29 11:51:52;;;;;;;10.48;8.15;;;;;;;;;;5030563;28;20041;-68
2022/09/29 11:54:39;;;;;;;7.75;6.68;;;;;;;;;;5031246;28;20038;-68
2022/09/29 11:57:09;;;;;;;10.52;8.05;;;;;;;;;;5034095;28;20049;-67
2022/09/29 11:59:54;;;;;;;10.25;8.13;;;;;;;;;;5031413;28;20422;-68
2022/09/29 12:02:20;;;;;;;12.65;10.27;;;;;;;;;;5031989;28;20582;-67
2022/09/29 12:04:55;;;;;;;12.15;9.48;;;;;;;;;;5036526;28;20159;-68
2022/09/29 12:07:24;;;;;;;11.88;8.82;;;;;;;;;;5022973;28;20049;-68
2022/09/29 12:09:56;;;;;;;11.23;7.35;;;;;;;;;;5029981;28;20037;-68
2022/09/29 12:12:22;;;;;;;9.30;7.18;;;;;;;;;;5033148;28;20048;-68
2022/09/29 12:15:07;;;;;;;8.35;6.82;;;;;;;;;;5037187;28;20407;-67
2022/09/29 12:17:35;;;;;;;7.68;6.82;;;;;;;;;;5025490;28;20079;-68
2022/09/29 12:20:17;;;;;;;9.85;6.88;;;;;;;;;;5030157;28;20040;-67
2022/09/29 12:22:45;;;;;;;9.52;6.85;;;;;;;;;;5023726;28;20439;-67
2022/09/29 12:25:15;;;;;;;7.25;5.72;;;;;;;;;;5030616;28;20045;-67
2022/09/29 12:27:43;;;;;;;7.43;5.55;;;;;;;;;;5024145;28;20132;-67
2022/09/29 12:30:20;;;;;;;6.95;5.10;;;;;;;;;;5027606;28;20060;-67
2022/09/29 12:32:50;;;;;;;5.68;4.53;;;;;;;;;;5024994;28;20395;-67
2022/09/29 12:35:19;;;;;;;5.57;4.40;;;;;;;;;;5023005;28;20037;-67
2022/09/29 12:37:56;;;;;;;4.80;4.15;;;;;;;;;;5027871;28;20045;-67
2022/09/29 12:40:29;;;;;;;5.18;4.15;;;;;;;;;;5024376;28;20041;-67
2022/09/29 12:43:01;;;;;;;5.60;4.65;;;;;;;;;;5024672;28;20045;-67
2022/09/29 12:45:51;;;;;;;5.38;4.43;;;;;;;;;;5032294;28;20047;-67
2022/09/29 12:48:17;;;;;;;4.90;4.40;;;;;;;;;;5029646;28;20451;-67
2022/09/29 12:50:50;;;;;;;5.35;4.30;;;;;;;;;;5030061;28;20033;-67
2022/09/29 12:53:19;;;;;;;5.65;4.18;;;;;;;;;;5027369;28;20037;-67
2022/09/29 12:55:45;;;;;;;5.45;3.80;;;;;;;;;;5022626;28;20041;-67
2022/09/29 12:58:15;;;;;;;3.17;2.70;;;;;;;;;;5028123;28;20033;-67
2022/09/29 13:00:43;;;;;;;4.97;2.87;;;;;;;;;;5028408;28;20072;-67
2022/09/29 13:03:30;;;;;;;5.85;3.22;;;;;;;;;;5022910;28;20837;-67
2022/09/29 13:06:12;;;;;;;3.40;3.10;;;;;;;;;;5006030;28;20059;-67
2022/09/29 13:08:39;;;;;;;4.22;3.05;;;;;;;;;;5025540;28;20565;-67
2022/09/29 13:11:11;;;;;;;4.82;3.58;;;;;;;;;;5027620;28;20119;-67
2022/09/29 13:14:00;;;;;;;3.55;2.90;;;;;;;;;;5035045;28;20045;-67
2022/09/29 13:16:46;;;;;;;4.88;2.58;;;;;;;;;;5046060;28;20037;-67
2022/09/29 13:19:32;;;;;;;4.68;2.65;;;;;;;;;;5028707;28;20077;-67
2022/09/29 13:22:17;;;;;;;4.40;2.47;;;;;;;;;;5031342;28;20045;-67
2022/09/29 13:24:57;;;;;;;4.43;2.53;;;;;;;;;;5024768;28;20076;-67
2022/09/29 13:27:36;;;;;;;2.53;2.00;;;;;;;;;;5028099;28;20034;-67
2022/09/29 13:30:02;;;;;;;3.60;2.20;;;;;;;;;;5033584;28;20033;-67
2022/09/29 13:32:29;;;;;;;4.32;2.60;;;;;;;;;;5043708;28;20037;-67
2022/09/29 13:34:58;;;;;;;3.38;2.50;;;;;;;;;;5030613;28;20034;-67
2022/09/29 13:37:25;;;;;;;3.15;2.55;;;;;;;;;;5011792;28;20100;-67
2022/09/29 13:39:58;;;;;;;3.38;2.85;;;;;;;;;;5030631;28;20042;-67
2022/09/29 13:42:41;;;;;;;3.22;2.75;;;;;;;;;;5033681;28;20045;-67
2022/09/29 13:45:36;;;;;;;2.72;2.53;;;;;;;;;;5041783;28;20052;-67
2022/09/29 13:48:18;;;;;;;3.95;2.53;;;;;;;;;;5030097;28;20042;-67
2022/09/29 13:50:46;;;;;;;5.05;3.05;;;;;;;;;;5028711;28;20045;-67
2022/09/29 13:53:32;;;;;;;2.17;1.98;;;;;;;;;;5015152;28;20490;-67
2022/09/29 13:56:02;;;;;;;2.38;2.00;;;;;;;;;;5029801;28;20525;-66
2022/09/29 13:58:28;;;;;;;3.00;2.28;;;;;;;;;;5031833;28;20602;-67
2022/09/29 14:00:58;;;;;;;3.30;2.50;;;;;;;;;;5029284;28;20119;-67
2022/09/29 14:03:34;;;;;;;3.03;2.67;;;;;;;;;;5033266;28;20045;-67
2022/09/29 14:06:20;;;;;;;2.97;2.35;;;;;;;;;;5032535;28;20042;-67
2022/09/29 14:08:51;;;;;;;2.47;2.20;;;;;;;;;;5036871;28;20095;-67
2022/09/29 14:11:28;;;;;;;2.67;2.13;;;;;;;;;;5028451;28;20045;-68
2022/09/29 14:14:04;;;;;;;3.55;2.28;;;;;;;;;;5013632;28;20065;-68
2022/09/29 14:16:38;;;;;;;2.53;2.30;;;;;;;;;;5026845;28;20041;-68
2022/09/29 14:19:05;;;;;;;5.68;2.17;;;;;;;;;;5052317;22;20486;-66
2022/09/29 14:21:52;;;;;;;3.60;2.45;;;;;;;;;;5049287;28;20518;-65
2022/09/29 14:24:48;;;;;;;3.05;1.88;;;;;;;;;;5043170;28;20084;-65
2022/09/29 14:27:14;;;;;;;2.03;1.83;;;;;;;;;;5045383;28;20103;-66
2022/09/29 14:29:45;;;;;;;3.28;2.35;;;;;;;;;;5030725;28;20041;-66
2022/09/29 14:32:11;;;;;;;;;;;;;;;;;;5027842;28;20121;-65
2022/09/29 14:34:39;;;;;;;3.03;2.20;;;;;;;;;;5026044;28;19928;-65
2022/09/29 14:37:06;;;;;;;4.20;2.85;;;;;;;;;;5031233;28;20041;-66
2022/09/29 14:39:32;;;;;;;3.90;2.42;;;;;;;;;;5024265;28;20046;-66
2022/09/29 14:41:58;;;;;;;2.92;2.33;;;;;;;;;;5031897;28;20037;-66
2022/09/29 14:44:26;;;;;;;4.95;2.20;;;;;;;;;;5030141;28;20116;-66
2022/09/29 14:52:59;;;;;;;2.30;1.65;;;;;;;;;;5025335;28;20041;-65
2022/09/29 14:55:25;;;;;;;3.25;1.63;;;;;;;;;;5031521;28;20450;-66